createdAt,value
2023-02-18T00:01:35.393Z,22.90
2023-02-18T00:07:34.662Z,20.47
2023-02-18T00:13:02.517Z,25.60
2023-02-18T00:29:30.811Z,24.00
2023-02-18T00:34:47.088Z,22.77
2023-02-18T00:51:20.035Z,25.77
2023-02-18T00:56:33.119Z,27.20
2023-02-18T01:12:47.215Z,25.43
2023-02-18T01:17:57.142Z,26.43
2023-02-18T01:28:54.869Z,27.97
2023-02-18T01:34:07.357Z,30.37
2023-02-18T01:44:52.784Z,33.07
2023-02-18T01:50:03.440Z,33.00
2023-02-18T01:55:08.006Z,32.00
2023-02-18T02:00:28.539Z,29.03
2023-02-18T02:05:48.855Z,34.07
2023-02-18T02:11:22.844Z,33.97
2023-02-18T02:17:05.296Z,28.23
2023-02-18T02:22:33.621Z,37.83
2023-02-18T02:28:14.379Z,33.43
2023-02-18T02:33:44.889Z,34.47
2023-02-18T02:39:24.528Z,38.43
2023-02-18T02:51:20.935Z,40.53
2023-02-18T02:56:34.294Z,40.53
2023-02-18T03:02:33.072Z,37.63
2023-02-18T03:14:23.581Z,39.10
2023-02-18T03:19:36.807Z,33.77
2023-02-18T03:24:51.172Z,33.03
2023-02-18T03:30:04.179Z,32.97
2023-02-18T03:40:38.183Z,30.77
2023-02-18T03:45:42.211Z,34.57
2023-02-18T03:51:37.042Z,34.77
2023-02-18T03:56:44.025Z,39.17
2023-02-18T04:07:27.277Z,49.57
2023-02-18T04:12:51.352Z,49.47
2023-02-18T04:18:05.601Z,47.20
2023-02-18T04:23:54.916Z,56.80
2023-02-18T04:34:47.032Z,49.77
2023-02-18T04:39:56.064Z,47.07
2023-02-18T04:45:04.166Z,44.77
2023-02-18T04:55:48.163Z,38.03
2023-02-18T05:00:53.308Z,40.50
2023-02-18T05:05:58.500Z,37.37
2023-02-18T05:11:00.362Z,37.90
2023-02-18T05:16:05.425Z,36.20
2023-02-18T05:21:13.387Z,33.53
2023-02-18T05:26:33.429Z,35.50
2023-02-18T05:32:05.528Z,34.10
2023-02-18T05:37:14.365Z,27.77
2023-02-18T05:42:30.983Z,32.83
2023-02-18T05:53:10.337Z,34.87
2023-02-18T05:58:24.322Z,29.77
2023-02-18T06:09:59.839Z,24.07
2023-02-18T06:15:40.116Z,18.03
2023-02-18T06:20:56.743Z,15.27
2023-02-18T06:26:11.483Z,13.60
2023-02-18T06:36:58.763Z,13.90
2023-02-18T06:42:14.097Z,10.70
2023-02-18T06:47:19.382Z,11.43
2023-02-18T06:52:33.516Z,12.77
2023-02-18T07:03:17.448Z,10.73
2023-02-18T07:08:25.296Z,10.70
2023-02-18T07:13:37.087Z,9.23
2023-02-18T07:19:44.567Z,7.90
2023-02-18T07:25:08.719Z,7.50
2023-02-18T07:30:14.027Z,7.67
2023-02-18T07:35:24.048Z,8.20
2023-02-18T07:40:45.206Z,8.70
2023-02-18T07:46:05.994Z,9.03
2023-02-18T07:51:22.089Z,9.80
2023-02-18T07:56:24.050Z,8.90
2023-02-18T08:01:31.504Z,8.80
2023-02-18T08:06:48.209Z,8.90
2023-02-18T08:11:52.233Z,7.53
2023-02-18T08:17:13.802Z,7.20
2023-02-18T08:22:20.668Z,7.00
2023-02-18T08:27:36.550Z,6.83
2023-02-18T08:32:49.886Z,6.80
2023-02-18T08:38:25.568Z,6.73
2023-02-18T08:43:27.676Z,7.03
2023-02-18T08:48:40.663Z,7.17
2023-02-18T08:59:34.978Z,9.23
2023-02-18T09:04:37.852Z,5.87
2023-02-18T09:09:43.797Z,6.90
2023-02-18T09:15:05.997Z,6.33
2023-02-18T09:20:26.151Z,7.20
2023-02-18T09:25:28.153Z,7.63
2023-02-18T09:30:35.052Z,10.43
2023-02-18T09:35:47.582Z,10.60
2023-02-18T09:40:54.134Z,12.30
2023-02-18T09:45:57.014Z,10.87
2023-02-18T09:51:21.881Z,9.00
2023-02-18T09:56:49.245Z,7.37
2023-02-18T10:07:43.698Z,8.30
2023-02-18T10:13:37.939Z,9.43
2023-02-18T10:19:29.660Z,9.23
2023-02-18T10:31:19.630Z,10.03
2023-02-18T10:36:55.851Z,8.17
2023-02-18T10:42:40.205Z,7.90
2023-02-18T10:48:45.117Z,9.27
2023-02-18T10:54:03.357Z,9.30
2023-02-18T11:05:14.525Z,12.70
2023-02-18T11:11:00.203Z,12.23
2023-02-18T11:16:31.565Z,11.30
2023-02-18T11:21:59.569Z,12.50
2023-02-18T11:27:40.028Z,10.83
2023-02-18T11:33:33.515Z,14.07
2023-02-18T11:43:59.298Z,10.30
2023-02-18T11:49:42.674Z,7.80
2023-02-18T11:55:24.945Z,6.23
2023-02-18T12:00:53.606Z,8.73
2023-02-18T12:06:01.753Z,5.90
2023-02-18T12:11:59.179Z,7.27
2023-02-18T12:17:49.656Z,5.30
2023-02-18T12:30:06.816Z,9.43
2023-02-18T13:13:56.118Z,7.47
2023-02-18T14:11:26.124Z,10.70
2023-02-18T14:22:59.213Z,7.53
2023-02-18T14:42:08.856Z,6.13
2023-02-18T14:47:48.161Z,9.67
2023-02-18T15:00:12.462Z,6.87
2023-02-18T15:05:25.696Z,7.97
2023-02-18T15:31:10.137Z,6.57
2023-02-18T15:36:23.624Z,7.20
2023-02-18T15:41:32.391Z,6.40
2023-02-18T15:46:43.080Z,6.00
2023-02-18T15:51:47.831Z,5.27
2023-02-18T15:56:55.027Z,5.30
2023-02-18T16:02:09.026Z,5.53
2023-02-18T16:20:05.837Z,6.87
2023-02-18T16:50:39.012Z,10.10
2023-02-18T16:56:50.929Z,12.83
2023-02-18T17:02:45.734Z,11.50
2023-02-18T17:08:30.232Z,17.60
2023-02-18T17:25:42.371Z,11.27
2023-02-18T17:49:56.402Z,10.47
2023-02-18T18:01:29.417Z,11.57
2023-02-18T20:02:35.602Z,17.30
